Latest Weather Observations for Sydney Airport

IDN60901

Issued at 6:01 pm EST Sunday 23 April 2017 (issued every 10 minutes, with the page automatically refreshed every 10 minutes)

About weather observations | Map of Sydney area stations | Latest observations for Sydney area | Other Formats
Station Details ID: 066037 Name: SYDNEY AIRPORT AMO Lat: -33.95 Lon: 151.17 Height: 6.0 m
Data from the previous 72 hours. | See also: Recent months at Sydney Airport
Date/Time
EST
Temp
°C
App
Temp
°C
Dew
Point
°C
Rel
Hum
%
Delta-T
°C
Wind Press
QNH
hPa
Press
MSL
hPa
Rain since
9am
mm
Dir  Spd
km/h
Gust
km/h
Spd
kts
Gust
kts
23/05:30pm 21.0 21.7 18.0 83 1.9 SSE 11 13 6 7 1021.5 1021.5 0.0
23/05:00pm 20.9 21.3 18.1 84 1.7 S 13 15 7 8 1021.1 1021.1 0.0
23/04:30pm 22.0 21.6 17.2 74 2.9 SSE 15 19 8 10 1021.0 1021.0 0.0
23/04:00pm 22.5 21.2 16.8 70 3.5 SE 19 22 10 12 1020.9 1020.9 0.0
23/03:30pm 22.7 21.7 16.7 69 3.7 SE 17 22 9 12 1020.9 1020.9 0.0
23/03:00pm 22.5 21.7 17.2 72 3.3 SSE 17 19 9 10 1020.9 1020.9 0.0
23/02:30pm 22.9 21.4 16.7 68 3.8 SE 20 24 11 13 1020.9 1020.9 0.0
23/02:00pm 23.5 23.0 14.8 58 5.2 ESE 11 13 6 7 1020.9 1020.9 0.0
23/01:30pm 24.2 23.5 15.4 58 5.3 SE 13 17 7 9 1021.0 1021.0 0.0
23/01:00pm 24.4 23.7 15.3 57 5.5 SE 13 19 7 10 1021.2 1021.2 0.0
23/12:30pm 23.6 23.4 14.6 57 5.3 SSE 9 15 5 8 1021.6 1021.6 0.0
23/12:00pm 24.6 24.4 14.7 54 5.9 WNW 9 13 5 7 1022.0 1022.0 0.0
23/11:30am 23.9 23.5 15.1 58 5.3 WNW 11 15 6 8 1022.5 1022.5 0.0
23/11:00am 24.1 23.4 15.3 58 5.3 NW 13 17 7 9 1023.0 1023.0 0.0
23/10:30am 24.0 23.5 15.8 60 5.0 WNW 13 19 7 10 1023.5 1023.5 0.0
23/10:00am 22.7 21.9 15.0 61 4.6 NW 13 17 7 9 1023.6 1023.6 0.0
23/09:30am 21.4 21.2 14.8 66 3.9 NW 9 15 5 8 1024.0 1024.0 0.0
23/09:00am 20.5 19.5 14.6 69 3.4 NW 13 17 7 9 1024.0 1024.0 0.0
23/08:30am 19.6 18.9 14.4 72 3.0 NW 11 15 6 8 1023.7 1023.7 0.0
23/08:00am 18.6 17.5 14.3 76 2.5 NW 13 15 7 8 1023.7 1023.7 0.0
23/07:30am 17.6 16.5 14.3 81 1.9 NNW 13 17 7 9 1023.6 1023.6 0.0
23/07:00am 17.0 15.9 14.3 84 1.5 NNW 13 17 7 9 1023.3 1023.3 0.0
23/06:30am 16.4 15.0 14.4 88 1.1 NNW 15 19 8 10 1023.0 1023.0 0.0
23/06:00am 16.1 14.7 14.6 91 0.9 NW 15 17 8 9 1022.7 1022.7 0.0
23/05:30am 16.1 15.3 15.0 93 0.6 WNW 13 15 7 8 1022.5 1022.5 0.0
23/05:00am 16.5 16.2 15.4 93 0.6 NNW 11 13 6 7 1022.3 1022.3 0.0
23/04:30am 16.4 16.0 15.3 93 0.6 NW 11 13 6 7 1022.2 1022.2 0.0
23/04:00am 16.6 16.7 15.5 93 0.6 W 9 11 5 6 1022.0 1022.0 0.0
23/03:30am 17.2 16.7 15.9 92 0.8 NW 13 15 7 8 1022.0 1022.0 0.0
23/03:00am 17.9 17.8 15.9 88 1.2 NNW 11 11 6 6 1022.1 1022.1 0.0
23/02:30am 17.9 17.7 15.7 87 1.3 NNW 11 11 6 6 1022.2 1022.2 0.0
23/02:00am 18.5 18.4 15.9 85 1.5 N 11 13 6 7 1022.5 1022.5 0.0
23/01:30am 18.3 18.5 15.7 85 1.5 NNW 9 11 5 6 1022.7 1022.7 0.0
23/01:00am 18.8 19.1 15.9 83 1.7 NNW 9 11 5 6 1022.9 1022.9 0.0
23/12:30am 19.0 19.6 15.9 82 1.8 NNW 7 7 4 4 1023.0 1023.0 0.0
23/12:00am 19.4 20.0 15.9 80 2.1 NW 7 7 4 4 1023.1 1023.1 0.0
 
Date/Time
EST
Temp
°C
App
Temp
°C
Dew
Point
°C
Rel
Hum
%
Delta-T
°C
Wind Press
QNH
hPa
Press
MSL
hPa
Rain since
9am
mm
Dir  Spd
km/h
Gust
km/h
Spd
kts
Gust
kts
22/11:30pm 19.8 21.0 15.9 78 2.3 N 4 6 2 3 1023.2 1023.2 0.0
22/11:00pm 19.5 20.1 15.2 76 2.5 N 6 7 3 4 1023.3 1023.3 0.0
22/10:30pm 20.5 21.2 15.5 73 3.0 N 6 7 3 4 1023.3 1023.3 0.0
22/10:00pm 21.0 21.6 15.3 70 3.4 NNE 6 7 3 4 1023.4 1023.4 0.0
22/09:30pm 21.6 22.2 15.7 69 3.5 N 7 7 4 4 1023.4 1023.4 0.0
22/09:00pm 21.5 23.0 15.6 69 3.5 NNE 2 6 1 3 1023.4 1023.4 0.0
22/08:30pm 21.4 21.5 15.5 69 3.5 N 9 9 5 5 1023.4 1023.4 0.0
22/08:00pm 22.1 22.0 15.9 68 3.7 NE 11 11 6 6 1023.2 1023.2 0.0
22/07:30pm 21.5 22.3 15.8 70 3.4 N 6 7 3 4 1023.2 1023.2 0.0
22/07:00pm 22.3 22.2 16.1 68 3.7 N 11 11 6 6 1023.1 1023.1 0.0
22/06:30pm 21.6 21.8 15.7 69 3.5 NE 9 11 5 6 1022.9 1022.9 0.0
22/06:00pm 21.8 22.1 15.9 69 3.5 NE 9 11 5 6 1022.8 1022.8 0.0
22/05:30pm 21.7 21.7 16.2 71 3.3 NNE 11 13 6 7 1022.7 1022.7 0.0
22/05:00pm 22.2 22.6 16.2 69 3.6 NE 9 13 5 7 1022.6 1022.6 0.0
22/04:30pm 22.2 22.4 15.8 67 3.8 ENE 9 11 5 6 1022.5 1022.5 0.0
22/04:00pm 22.5 21.6 15.8 66 4.0 NE 15 19 8 10 1022.3 1022.3 0.0
22/03:30pm 23.2 21.9 15.8 63 4.5 ENE 17 20 9 11 1022.1 1022.1 0.0
22/03:00pm 23.5 21.9 16.1 63 4.5 E 19 24 10 13 1022.0 1022.0 0.0
22/02:30pm 23.8 22.9 15.8 61 4.8 E 15 19 8 10 1022.2 1022.2 0.0
22/02:00pm 23.5 22.2 15.8 62 4.6 E 17 22 9 12 1022.4 1022.4 0.0
22/01:30pm 24.4 24.8 15.3 57 5.5 S 7 9 4 5 1022.6 1022.6 0.0
22/01:00pm 24.3 24.6 15.0 56 5.5 NW 7 11 4 6 1022.9 1022.9 0.0
22/12:30pm 22.8 22.6 14.6 60 4.8 N 9 15 5 8 1023.5 1023.5 0.0
22/12:00pm 23.6 22.4 15.1 59 5.1 NE 15 19 8 10 1024.1 1024.1 0.0
22/11:30am 22.8 21.5 14.9 61 4.7 NE 15 19 8 10 1024.6 1024.6 0.0
22/11:00am 22.7 21.5 15.0 61 4.6 NNE 15 20 8 11 1024.8 1024.8 0.0
22/10:30am 22.3 21.4 14.9 63 4.4 N 13 17 7 9 1025.4 1025.4 0.0
22/10:00am 21.8 20.7 15.2 66 3.9 NNE 15 19 8 10 1025.4 1025.4 0.0
22/09:30am 21.3 19.7 14.9 67 3.8 N 17 24 9 13 1025.5 1025.5 0.0
22/09:00am 20.4 20.2 14.7 70 3.3 NE 9 11 5 6 1025.7 1025.7 0.0
22/08:30am 20.1 20.3 14.7 71 3.2 N 7 11 4 6 1025.5 1025.5 0.0
22/08:00am 19.8 19.7 15.0 74 2.8 N 9 11 5 6 1025.6 1025.6 0.0
22/07:30am 19.5 19.9 14.7 74 2.8 WNW 6 9 3 5 1025.3 1025.3 0.0
22/07:00am 19.7 20.1 15.4 76 2.5 N 7 9 4 5 1025.2 1025.2 0.0
22/06:30am 19.6 20.0 15.3 76 2.5 NNE 7 9 4 5 1025.0 1025.0 0.0
22/06:00am 19.2 19.8 15.3 78 2.3 NNW 6 7 3 4 1024.7 1024.7 0.0
22/05:30am 19.2 19.3 15.5 79 2.2 NW 9 9 5 5 1024.5 1024.5 0.0
22/05:00am 19.3 18.7 15.6 79 2.2 NW 13 13 7 7 1024.4 1024.4 0.0
22/04:30am 18.8 19.0 15.7 82 1.8 WNW 9 11 5 6 1024.3 1024.3 0.0
22/04:00am 18.7 18.8 15.4 81 1.9 WNW 9 9 5 5 1024.2 1024.2 0.0
22/03:30am 19.4 20.0 15.7 79 2.2 N 7 9 4 5 1024.2 1024.2 0.0
22/03:00am 19.4 19.7 15.9 80 2.1 N 9 9 5 5 1024.2 1024.2 0.0
22/02:30am 19.6 19.9 15.9 79 2.2 N 9 11 5 6 1024.3 1024.3 0.0
22/02:00am 19.7 19.1 15.6 77 2.4 NNW 13 15 7 8 1024.7 1024.7 0.0
22/01:30am 19.9 19.3 15.7 77 2.5 NW 13 15 7 8 1024.9 1024.9 0.0
22/01:00am 20.1 19.7 16.1 78 2.4 WNW 13 17 7 9 1025.1 1025.1 0.0
22/12:30am 20.3 20.5 15.7 75 2.7 N 9 13 5 7 1025.1 1025.1 0.0
22/12:00am 20.8 21.5 16.2 75 2.8 NE 7 9 4 5 1025.2 1025.2 0.0
 
Date/Time
EST
Temp
°C
App
Temp
°C
Dew
Point
°C
Rel
Hum
%
Delta-T
°C
Wind Press
QNH
hPa
Press
MSL
hPa
Rain since
9am
mm
Dir  Spd
km/h
Gust
km/h
Spd
kts
Gust
kts
21/11:30pm 21.0 20.6 16.2 74 2.9 ENE 13 15 7 8 1025.3 1025.3 0.0
21/11:00pm 20.4 19.7 16.4 78 2.4 NE 15 20 8 11 1025.2 1025.2 0.0
21/10:30pm 21.3 19.9 16.5 74 2.9 NNE 19 26 10 14 1025.3 1025.3 0.0
21/10:00pm 21.6 20.6 16.6 73 3.0 NNE 17 22 9 12 1025.4 1025.4 0.0
21/09:30pm 21.9 21.1 17.1 74 2.9 NNE 17 19 9 10 1025.6 1025.6 0.0
21/09:00pm 21.1 21.1 17.3 79 2.3 NE 13 17 7 9 1025.7 1025.7 0.0
21/08:30pm 20.6 19.6 16.6 78 2.4 NE 17 20 9 11 1025.6 1025.6 0.0
21/08:00pm 21.2 19.9 16.8 76 2.7 NE 19 22 10 12 1025.5 1025.5 0.0
21/07:30pm 21.0 19.4 16.6 76 2.7 NE 20 28 11 15 1025.2 1025.2 0.0
21/07:00pm 20.9 19.8 15.4 71 3.2 NE 15 19 8 10 1025.2 1025.2 0.0
21/06:30pm 21.8 20.4 15.6 68 3.7 NE 17 19 9 10 1025.1 1025.1 0.0
21/06:00pm 22.7 20.8 15.3 63 4.4 NE 19 24 10 13 1024.9 1024.9 0.0
21/05:30pm 22.2 20.1 14.6 62 4.5 NE 19 26 10 14 1024.8 1024.8 0.0
21/05:00pm 22.0 19.8 14.9 64 4.2 NE 20 24 11 13 1024.7 1024.7 0.0
21/04:30pm 21.8 19.7 15.2 66 3.9 ENE 20 28 11 15 1024.6 1024.6 0.0
21/04:00pm 22.2 19.7 15.1 64 4.2 ENE 22 28 12 15 1024.6 1024.6 0.0
21/03:30pm 22.3 20.4 15.2 64 4.2 ENE 19 26 10 14 1024.6 1024.6 0.0
21/03:00pm 22.6 20.5 15.2 63 4.4 E 20 26 11 14 1024.6 1024.6 0.0
21/02:30pm 23.5 22.1 15.5 60 4.8 ENE 17 22 9 12 1024.7 1024.7 0.0
21/02:00pm 23.6 23.1 15.9 62 4.6 ENE 13 19 7 10 1024.9 1024.9 0.0
21/01:30pm 23.9 23.5 15.1 58 5.3 N 11 22 6 12 1025.2 1025.2 0.0
21/01:00pm 23.3 22.3 15.6 62 4.6 SE 15 20 8 11 1025.4 1025.4 0.0
21/12:30pm 22.9 21.6 14.7 60 4.8 ESE 15 20 8 11 1025.8 1025.8 0.0
21/12:00pm 23.3 23.1 14.6 58 5.1 NE 9 11 5 6 1026.3 1026.3 0.0
21/11:30am 23.2 22.4 13.9 56 5.4 WNW 11 19 6 10 1027.0 1027.0 0.0
21/11:00am 23.9 22.8 14.3 55 5.6 WNW 13 19 7 10 1027.5 1027.5 0.0
21/10:30am 23.5 22.3 13.9 55 5.6 WNW 13 17 7 9 1027.7 1027.7 0.0
21/10:00am 22.3 21.7 13.4 57 5.1 NW 9 13 5 7 1027.9 1027.9 0.0
21/09:30am 21.6 20.9 13.2 59 4.8 NW 9 13 5 7 1028.2 1028.2 0.0
21/09:00am 20.3 18.8 13.0 63 4.1 NW 13 15 7 8 1028.4 1028.4 0.0
21/08:30am 19.2 18.0 12.9 67 3.5 NW 11 17 6 9 1028.4 1028.4 0.0
21/08:00am 18.2 16.8 13.5 74 2.6 NNW 13 15 7 8 1028.3 1028.3 0.0
21/07:30am 16.5 15.3 12.8 79 2.1 NW 11 15 6 8 1028.1 1028.1 0.0
21/07:00am 15.4 13.8 12.7 84 1.5 NW 13 19 7 10 1027.7 1027.7 0.0
21/06:30am 15.8 14.3 13.1 84 1.5 NW 13 17 7 9 1027.2 1027.2 0.0
21/06:00am 15.3 13.3 12.8 85 1.4 NNW 15 17 8 9 1027.0 1027.0 0.0
21/05:30am 15.6 14.2 13.3 86 1.3 NNW 13 15 7 8 1026.7 1026.7 0.0
21/05:00am 15.6 14.0 12.9 84 1.5 NW 13 17 7 9 1026.6 1026.6 0.0
21/04:30am 15.2 12.8 12.5 84 1.5 NW 17 19 9 10 1026.6 1026.6 0.0
21/04:00am 15.5 13.9 12.8 84 1.5 NNW 13 13 7 7 1026.3 1026.3 0.0
21/03:30am 15.9 14.8 13.0 83 1.6 NNW 11 13 6 7 1026.2 1026.2 0.0
21/03:00am 16.0 15.3 13.1 83 1.6 NNW 9 13 5 7 1026.3 1026.3 0.0
21/02:30am 16.2 14.6 12.9 81 1.8 NNW 13 15 7 8 1026.5 1026.5 0.0
21/02:00am 16.5 15.7 12.8 79 2.0 NNW 9 11 5 6 1026.7 1026.7 0.0
21/01:30am 16.4 15.3 13.1 81 1.8 N 11 13 6 7 1026.9 1026.9 0.0
21/01:00am 17.3 16.9 13.0 76 2.4 N 7 9 4 5 1027.1 1027.1 0.0
21/12:30am 17.2 16.4 12.9 76 2.4 NNW 9 11 5 6 1027.4 1027.4 0.0
21/12:00am 17.2 16.0 12.7 75 2.5 WNW 11 15 6 8 1027.4 1027.4 0.0
 
Date/Time
EST
Temp
°C
App
Temp
°C
Dew
Point
°C
Rel
Hum
%
Delta-T
°C
Wind Press
QNH
hPa
Press
MSL
hPa
Rain since
9am
mm
Dir  Spd
km/h
Gust
km/h
Spd
kts
Gust
kts
20/11:30pm 17.3 16.1 12.8 75 2.5 WNW 11 15 6 8 1027.5 1027.5 0.0
20/11:00pm 17.9 16.8 13.2 74 2.6 WNW 11 13 6 7 1027.5 1027.5 0.0
20/10:30pm 18.1 17.3 12.8 71 3.0 WNW 9 13 5 7 1027.8 1027.8 0.0
20/10:00pm 18.8 18.2 12.3 66 3.6 NNW 7 9 4 5 1028.1 1028.1 0.0
20/09:30pm 21.0 20.1 12.7 59 4.7 N 9 11 5 6 1028.2 1028.2 0.0
20/09:00pm 20.8 19.8 12.2 58 4.8 N 9 9 5 5 1028.3 1028.3 0.0
20/08:30pm 20.7 19.6 11.9 57 4.9 NNE 9 13 5 7 1028.5 1028.5 0.0
20/08:00pm 20.5 18.7 12.2 59 4.6 NE 13 17 7 9 1028.4 1028.4 0.0
20/07:30pm 20.4 18.3 12.4 60 4.5 NE 15 19 8 10 1028.4 1028.4 0.0
20/07:00pm 20.4 18.7 12.4 60 4.5 NE 13 17 7 9 1028.3 1028.3 0.0
20/06:30pm 21.0 19.6 12.2 57 4.9 NE 11 15 6 8 1028.2 1028.2 0.0

Latest Capital City Observations: Canberra | Sydney | Melbourne | Brisbane | Adelaide | Perth | Hobart | Darwin

Other Formats:

Comma delimited format used in spreadsheet applications
http://www.bom.gov.au/fwo/IDN60901/IDN60901.94767.axf

JavaScript Object Notation format (JSON) in row-major order
http://www.bom.gov.au/fwo/IDN60901/IDN60901.94767.json